createdAt,value
2023-04-07T00:01:48.516Z,67.90
2023-04-07T00:04:16.684Z,67.60
2023-04-07T00:06:45.408Z,68.90
2023-04-07T00:09:14.761Z,69.40
2023-04-07T00:11:42.767Z,68.30
2023-04-07T00:14:10.783Z,66.90
2023-04-07T00:16:39.671Z,67.90
2023-04-07T00:19:07.705Z,67.70
2023-04-07T00:21:35.736Z,67.20
2023-04-07T00:24:03.788Z,67.10
2023-04-07T00:26:33.293Z,68.10
2023-04-07T00:29:01.793Z,67.90
2023-04-07T00:31:30.872Z,67.90
2023-04-07T00:33:59.163Z,70.00
2023-04-07T00:36:29.321Z,69.60
2023-04-07T00:38:57.297Z,69.30
2023-04-07T00:41:26.136Z,70.30
2023-04-07T00:43:55.713Z,69.80
2023-04-07T00:46:25.136Z,70.00
2023-04-07T00:48:53.305Z,69.00
2023-04-07T00:51:23.001Z,70.70
2023-04-07T00:53:53.224Z,70.40
2023-04-07T00:56:21.482Z,72.90
2023-04-07T00:58:49.517Z,73.30
2023-04-07T01:01:23.032Z,75.30
2023-04-07T01:03:54.474Z,75.20
2023-04-07T01:06:26.084Z,75.70
2023-04-07T01:08:58.447Z,74.50
2023-04-07T01:11:29.387Z,74.00
2023-04-07T01:13:59.153Z,76.40
2023-04-07T01:16:38.806Z,75.00
2023-04-07T01:19:12.640Z,75.00
2023-04-07T01:21:44.020Z,73.40
2023-04-07T01:24:25.977Z,71.10
2023-04-07T01:26:56.781Z,70.60
2023-04-07T01:29:28.829Z,70.50
2023-04-07T01:31:57.841Z,73.00
2023-04-07T01:34:27.067Z,71.70
2023-04-07T01:36:55.709Z,72.00
2023-04-07T01:39:24.542Z,73.00
2023-04-07T01:41:54.022Z,71.00
2023-04-07T01:44:22.190Z,73.60
2023-04-07T01:46:52.763Z,73.90
2023-04-07T01:49:21.176Z,74.10
2023-04-07T01:51:50.622Z,74.90
2023-04-07T01:54:19.700Z,75.30
2023-04-07T01:56:47.740Z,75.20
2023-04-07T01:59:17.793Z,75.10
2023-04-07T02:01:49.369Z,75.50
2023-04-07T02:04:21.947Z,75.70
2023-04-07T02:06:52.650Z,74.20
2023-04-07T02:09:25.508Z,73.80
2023-04-07T02:11:54.544Z,75.80
2023-04-07T02:14:24.474Z,74.20
2023-04-07T02:17:05.423Z,73.70
2023-04-07T02:19:45.214Z,75.70
2023-04-07T02:22:14.546Z,74.80
2023-04-07T02:24:45.092Z,71.90
2023-04-07T02:27:14.121Z,70.80
2023-04-07T02:29:52.089Z,71.60
2023-04-07T02:32:30.401Z,70.80
2023-04-07T02:35:10.600Z,71.50
2023-04-07T02:37:41.339Z,71.70
2023-04-07T02:40:10.220Z,72.50
2023-04-07T02:42:39.093Z,72.80
2023-04-07T02:45:10.194Z,72.80
2023-04-07T02:47:39.886Z,75.00
2023-04-07T02:50:18.493Z,75.90
2023-04-07T02:52:49.082Z,76.30
2023-04-07T02:55:18.483Z,77.20
2023-04-07T02:57:46.875Z,76.30
2023-04-07T03:00:29.734Z,76.30
2023-04-07T03:03:10.066Z,77.80
2023-04-07T03:05:42.726Z,77.50
2023-04-07T03:08:13.159Z,78.20
2023-04-07T03:10:41.791Z,78.20
2023-04-07T03:13:12.907Z,78.30
2023-04-07T03:15:41.502Z,79.10
2023-04-07T03:18:09.941Z,78.80
2023-04-07T03:20:38.580Z,79.80
2023-04-07T03:23:13.054Z,82.20
2023-04-07T03:25:41.608Z,81.30
2023-04-07T03:28:12.621Z,82.00
2023-04-07T03:30:41.514Z,82.70
2023-04-07T03:33:10.297Z,82.50
2023-04-07T03:35:38.384Z,83.50
2023-04-07T03:38:07.685Z,83.50
2023-04-07T03:40:38.689Z,83.30
2023-04-07T03:43:12.529Z,81.50
2023-04-07T03:45:41.526Z,80.70
2023-04-07T03:48:11.964Z,81.40
2023-04-07T03:50:48.469Z,82.20
2023-04-07T03:53:19.695Z,81.70
2023-04-07T03:55:49.509Z,80.00
2023-04-07T03:58:30.941Z,78.50
2023-04-07T04:00:59.006Z,79.40
2023-04-07T04:03:27.393Z,79.90
2023-04-07T04:06:07.803Z,79.90
2023-04-07T04:08:36.953Z,79.40
2023-04-07T04:11:07.867Z,79.00
2023-04-07T04:13:44.843Z,79.90
2023-04-07T04:16:15.231Z,78.90
2023-04-07T04:18:44.924Z,83.40
2023-04-07T04:21:15.858Z,83.40
2023-04-07T04:23:45.874Z,84.30
2023-04-07T04:26:16.059Z,85.00
2023-04-07T04:28:45.630Z,86.60
2023-04-07T04:31:16.310Z,88.10
2023-04-07T04:33:45.910Z,89.70
2023-04-07T04:36:15.075Z,89.60
2023-04-07T04:38:43.725Z,88.20
2023-04-07T04:41:18.935Z,86.20
2023-04-07T04:43:47.919Z,84.80
2023-04-07T04:46:20.293Z,85.40
2023-04-07T04:48:51.608Z,86.00
2023-04-07T04:51:21.158Z,86.40
2023-04-07T04:53:55.046Z,84.80
2023-04-07T04:56:26.817Z,84.20
2023-04-07T04:58:55.913Z,83.90
2023-04-07T05:01:39.442Z,84.80
2023-04-07T05:04:14.197Z,85.60
2023-04-07T05:06:48.557Z,85.40
2023-04-07T05:09:19.819Z,85.70
2023-04-07T05:11:51.887Z,87.70
2023-04-07T05:14:20.101Z,88.00
2023-04-07T05:16:54.649Z,88.60
2023-04-07T05:19:29.587Z,88.20
2023-04-07T05:22:03.079Z,89.60
2023-04-07T05:24:35.520Z,89.90
2023-04-07T05:27:05.137Z,88.80
2023-04-07T05:29:35.294Z,86.80
2023-04-07T05:32:06.393Z,86.50
2023-04-07T05:34:34.547Z,87.70
2023-04-07T05:37:03.107Z,87.00
2023-04-07T05:39:31.363Z,87.70
2023-04-07T05:42:02.206Z,88.30
2023-04-07T05:44:31.824Z,90.20
2023-04-07T05:47:01.254Z,90.40
2023-04-07T05:49:31.035Z,90.90
2023-04-07T05:52:06.006Z,92.00
2023-04-07T05:54:39.407Z,91.60
2023-04-07T05:57:08.324Z,91.60
2023-04-07T05:59:40.635Z,91.40
2023-04-07T06:02:08.763Z,90.50
2023-04-07T06:04:36.949Z,91.10
2023-04-07T06:07:06.840Z,91.10
2023-04-07T06:09:34.890Z,91.20
2023-04-07T06:12:05.187Z,89.70
2023-04-07T06:14:34.041Z,87.50
2023-04-07T06:17:03.644Z,86.20
2023-04-07T06:19:31.756Z,86.50
2023-04-07T06:22:01.655Z,88.80
2023-04-07T06:24:29.985Z,88.50
2023-04-07T06:27:02.006Z,86.50
2023-04-07T06:29:30.310Z,87.30
2023-04-07T06:31:58.731Z,85.60
2023-04-07T06:34:28.247Z,85.60
2023-04-07T06:36:58.178Z,83.60
2023-04-07T06:39:28.216Z,84.70
2023-04-07T06:41:57.006Z,84.40
2023-04-07T06:44:25.279Z,85.10
2023-04-07T06:46:55.450Z,80.20
2023-04-07T06:49:23.600Z,78.70
2023-04-07T06:51:53.003Z,70.20
2023-04-07T06:54:21.486Z,68.10
2023-04-07T06:56:49.511Z,64.20
2023-04-07T06:59:17.603Z,64.70
2023-04-07T07:01:46.417Z,62.80
2023-04-07T07:04:15.687Z,62.60
2023-04-07T07:06:43.898Z,62.00
2023-04-07T07:09:13.652Z,62.80
2023-04-07T07:11:41.893Z,61.80
2023-04-07T07:14:11.327Z,63.30
2023-04-07T07:16:39.551Z,63.60
2023-04-07T07:19:07.656Z,64.40
2023-04-07T07:21:36.490Z,64.70
2023-04-07T07:24:04.609Z,62.70
2023-04-07T07:26:34.006Z,61.50
2023-04-07T07:29:02.016Z,61.50
2023-04-07T07:31:31.148Z,58.60
2023-04-07T07:33:59.412Z,60.40
2023-04-07T07:36:27.643Z,62.00
2023-04-07T07:38:57.513Z,63.80
2023-04-07T07:41:26.389Z,61.20
2023-04-07T07:43:55.989Z,60.50
2023-04-07T07:46:26.155Z,60.70
2023-04-07T07:48:54.371Z,58.60
2023-04-07T07:51:23.460Z,56.10
2023-04-07T07:53:53.146Z,57.10
2023-04-07T07:56:21.683Z,55.40
2023-04-07T07:58:50.388Z,57.00
2023-04-07T08:01:20.462Z,58.50
2023-04-07T08:03:49.919Z,58.50
2023-04-07T08:06:18.593Z,58.50
2023-04-07T08:08:46.832Z,58.10
2023-04-07T08:11:14.920Z,59.60
2023-04-07T08:13:45.540Z,59.00
2023-04-07T08:16:15.579Z,55.30
2023-04-07T08:18:45.166Z,58.80
2023-04-07T08:21:13.594Z,52.60
2023-04-07T08:23:41.666Z,53.40
2023-04-07T08:26:09.753Z,53.10
2023-04-07T08:28:39.432Z,53.00
2023-04-07T08:31:08.334Z,48.00
2023-04-07T08:33:36.637Z,50.50
2023-04-07T08:36:06.654Z,48.20
2023-04-07T08:38:36.023Z,49.10
2023-04-07T08:41:05.745Z,47.80
2023-04-07T08:43:34.773Z,48.10
2023-04-07T08:46:03.495Z,46.90
2023-04-07T08:48:33.981Z,45.10
2023-04-07T08:51:04.977Z,44.50
2023-04-07T08:53:37.013Z,46.00
2023-04-07T08:56:06.654Z,43.50
2023-04-07T08:58:36.810Z,43.60
2023-04-07T09:01:05.907Z,41.10
2023-04-07T09:03:35.144Z,45.80
2023-04-07T09:06:03.486Z,42.60
2023-04-07T09:08:32.447Z,44.60
2023-04-07T09:11:01.889Z,42.20
2023-04-07T09:13:31.562Z,37.80
2023-04-07T09:16:00.698Z,41.60
2023-04-07T09:18:29.650Z,40.40
2023-04-07T09:20:58.554Z,40.60
2023-04-07T09:23:30.758Z,41.60
2023-04-07T09:26:02.892Z,40.70
2023-04-07T09:28:42.565Z,39.10
2023-04-07T09:31:10.814Z,41.60
2023-04-07T09:33:38.847Z,39.60
2023-04-07T09:36:08.320Z,36.40
2023-04-07T09:38:37.596Z,37.50
2023-04-07T09:41:11.442Z,38.80
2023-04-07T09:43:41.190Z,41.40
2023-04-07T09:46:13.486Z,39.30
2023-04-07T09:48:42.625Z,37.50
2023-04-07T09:51:12.978Z,39.80
2023-04-07T09:53:45.250Z,36.80
2023-04-07T09:56:16.205Z,38.10
2023-04-07T09:58:45.448Z,37.10
2023-04-07T10:01:14.197Z,36.30
2023-04-07T10:03:42.246Z,40.10
2023-04-07T10:06:10.574Z,37.30
2023-04-07T10:08:39.563Z,35.80
2023-04-07T10:11:07.856Z,36.70
2023-04-07T10:13:40.807Z,36.40
2023-04-07T10:16:09.154Z,37.80
2023-04-07T10:18:37.959Z,38.80
2023-04-07T10:21:09.334Z,37.40
2023-04-07T10:23:41.497Z,38.80
2023-04-07T10:26:09.968Z,38.60
2023-04-07T10:28:42.002Z,36.00
2023-04-07T10:31:10.316Z,39.50
2023-04-07T10:33:46.590Z,39.10
2023-04-07T10:36:14.843Z,42.00
2023-04-07T10:38:43.343Z,40.20
2023-04-07T10:41:29.957Z,41.10
2023-04-07T10:43:59.310Z,40.80
2023-04-07T10:46:48.339Z,38.10
2023-04-07T10:49:18.744Z,38.30
2023-04-07T10:52:07.381Z,38.10
2023-04-07T10:54:35.577Z,37.10
2023-04-07T10:57:14.133Z,37.70
2023-04-07T11:00:04.440Z,37.20
2023-04-07T11:02:36.532Z,35.10
2023-04-07T11:05:06.121Z,37.80
2023-04-07T11:07:48.837Z,37.40
2023-04-07T11:10:19.138Z,39.50
2023-04-07T11:13:04.727Z,35.30
2023-04-07T11:15:35.501Z,34.00
2023-04-07T11:18:07.743Z,36.60
2023-04-07T11:20:44.394Z,37.60
2023-04-07T11:23:14.339Z,34.30
2023-04-07T11:25:43.821Z,33.00
2023-04-07T11:28:12.659Z,33.10
2023-04-07T11:30:46.086Z,30.50
2023-04-07T11:33:18.657Z,34.00
2023-04-07T11:35:55.500Z,33.60
2023-04-07T11:38:24.573Z,36.10
2023-04-07T11:40:53.052Z,34.30
2023-04-07T11:43:21.995Z,35.10
2023-04-07T11:46:08.072Z,31.30
2023-04-07T11:48:37.372Z,29.90
2023-04-07T11:51:06.951Z,35.20
2023-04-07T11:53:38.107Z,37.20
2023-04-07T11:56:07.794Z,37.30
2023-04-07T11:58:38.712Z,38.80
2023-04-07T12:01:09.527Z,40.80
2023-04-07T12:03:38.590Z,40.90
2023-04-07T12:06:07.133Z,42.60
2023-04-07T12:08:38.923Z,42.90
2023-04-07T12:11:08.115Z,42.70
2023-04-07T12:13:36.669Z,44.10
2023-04-07T12:16:05.081Z,42.70
2023-04-07T12:18:34.979Z,44.60
2023-04-07T12:21:03.338Z,44.00
2023-04-07T12:23:33.999Z,41.20
2023-04-07T12:26:02.415Z,41.20
2023-04-07T12:28:31.395Z,43.00
2023-04-07T12:30:59.643Z,42.50
2023-04-07T12:33:27.996Z,42.80
2023-04-07T12:35:58.345Z,43.40
2023-04-07T12:38:26.425Z,43.50
2023-04-07T12:40:55.250Z,40.90
2023-04-07T12:43:24.113Z,39.70
2023-04-07T12:45:53.243Z,40.00
2023-04-07T12:48:21.404Z,40.40
2023-04-07T12:50:49.528Z,41.70
2023-04-07T12:53:20.618Z,42.80
2023-04-07T12:55:50.363Z,38.10
2023-04-07T12:58:20.531Z,39.30
2023-04-07T13:00:48.801Z,39.20
2023-04-07T13:03:17.697Z,37.00
2023-04-07T13:05:45.985Z,36.00
2023-04-07T13:08:14.368Z,37.30
2023-04-07T13:10:45.033Z,35.30
2023-04-07T13:13:13.163Z,36.10
2023-04-07T13:15:41.410Z,33.90
2023-04-07T13:18:09.956Z,33.70
2023-04-07T13:20:38.149Z,34.10
2023-04-07T13:23:09.569Z,34.00
2023-04-07T13:25:39.883Z,34.00
2023-04-07T13:28:09.388Z,33.70
2023-04-07T13:30:37.520Z,32.80
2023-04-07T13:33:05.915Z,33.10
2023-04-07T13:35:36.014Z,33.00
2023-04-07T13:38:04.862Z,34.70
2023-04-07T13:40:32.980Z,34.60
2023-04-07T13:43:01.623Z,34.50
2023-04-07T13:45:31.200Z,34.40
2023-04-07T13:47:59.419Z,37.60
2023-04-07T13:50:27.468Z,36.20
2023-04-07T13:52:55.778Z,36.20
2023-04-07T13:55:23.959Z,34.70
2023-04-07T13:57:52.195Z,36.20
2023-04-07T14:00:20.675Z,36.20
2023-04-07T14:02:50.683Z,36.20
2023-04-07T14:05:18.961Z,36.20
2023-04-07T14:07:48.074Z,39.10
2023-04-07T14:10:16.228Z,38.40
2023-04-07T14:12:44.380Z,40.60
2023-04-07T14:15:13.421Z,37.90
2023-04-07T14:17:41.536Z,41.40
2023-04-07T14:20:11.345Z,39.50
2023-04-07T14:22:39.465Z,40.10
2023-04-07T14:25:08.887Z,39.10
2023-04-07T14:27:37.176Z,36.80
2023-04-07T14:30:07.084Z,37.20
2023-04-07T14:32:35.219Z,37.20
2023-04-07T14:35:03.261Z,37.10
2023-04-07T14:37:32.745Z,37.60
2023-04-07T14:40:03.039Z,36.40
2023-04-07T14:42:31.967Z,40.00
2023-04-07T14:45:01.698Z,37.20
2023-04-07T14:47:29.903Z,40.00
2023-04-07T14:49:58.199Z,39.50
2023-04-07T14:52:28.010Z,39.50
2023-04-07T14:55:00.037Z,40.40
2023-04-07T14:57:28.708Z,42.50
2023-04-07T14:59:56.976Z,44.00
2023-04-07T15:02:25.442Z,40.60
2023-04-07T15:04:54.420Z,39.20
2023-04-07T15:07:22.620Z,40.00
2023-04-07T15:09:51.482Z,42.50
2023-04-07T15:12:21.604Z,45.40
2023-04-07T15:14:51.948Z,45.50
2023-04-07T15:17:27.586Z,45.90
2023-04-07T15:20:01.389Z,45.60
2023-04-07T15:22:30.607Z,46.60
2023-04-07T15:24:58.906Z,44.40
2023-04-07T15:27:29.371Z,45.90
2023-04-07T15:29:57.564Z,45.70
2023-04-07T15:32:25.801Z,49.30
2023-04-07T15:34:54.098Z,48.60
2023-04-07T15:37:22.151Z,47.90
2023-04-07T15:39:51.880Z,48.70
2023-04-07T15:42:20.019Z,47.40
2023-04-07T15:44:49.627Z,47.30
2023-04-07T15:47:17.873Z,47.00
2023-04-07T15:49:46.078Z,45.50
2023-04-07T15:52:14.856Z,48.00
2023-04-07T15:54:43.059Z,48.40
2023-04-07T15:57:13.191Z,46.80
2023-04-07T15:59:41.215Z,45.50
2023-04-07T16:02:12.889Z,46.00
2023-04-07T16:04:42.120Z,47.00
2023-04-07T16:07:28.790Z,46.10
2023-04-07T16:10:19.794Z,45.20
2023-04-07T16:13:08.281Z,44.00
2023-04-07T16:15:56.896Z,44.90
2023-04-07T16:18:47.968Z,45.40
2023-04-07T16:21:16.546Z,43.80
2023-04-07T16:23:45.589Z,43.70
2023-04-07T16:26:13.790Z,43.30
2023-04-07T16:28:44.290Z,43.60
2023-04-07T16:31:12.420Z,43.00
2023-04-07T16:33:40.428Z,43.50
2023-04-07T16:36:09.949Z,45.10
2023-04-07T16:38:37.998Z,44.60
2023-04-07T16:41:08.027Z,43.20
2023-04-07T16:43:36.245Z,43.30
2023-04-07T16:46:05.918Z,44.70
2023-04-07T16:48:34.218Z,44.10
2023-04-07T16:51:02.918Z,44.80
2023-04-07T16:53:32.307Z,46.60
2023-04-07T16:56:00.467Z,47.60
2023-04-07T16:58:28.492Z,48.10
2023-04-07T17:00:56.560Z,48.00
2023-04-07T17:03:25.064Z,48.00
2023-04-07T17:05:54.456Z,48.00
2023-04-07T17:08:22.542Z,48.60
2023-04-07T17:10:52.034Z,47.60
2023-04-07T17:13:20.644Z,46.00
2023-04-07T17:15:48.687Z,46.10
2023-04-07T17:18:16.726Z,45.30
2023-04-07T17:20:44.751Z,45.70
2023-04-07T17:23:12.816Z,47.40
2023-04-07T17:25:41.077Z,47.10
2023-04-07T17:28:12.781Z,47.10
2023-04-07T17:30:41.450Z,48.50
2023-04-07T17:33:09.613Z,48.50
2023-04-07T17:35:38.410Z,48.90
2023-04-07T17:38:06.761Z,49.50
2023-04-07T17:40:34.855Z,49.60
2023-04-07T17:43:04.725Z,49.60
2023-04-07T17:45:35.806Z,49.70
2023-04-07T17:48:04.072Z,50.20
2023-04-07T17:50:32.706Z,50.60
2023-04-07T17:53:01.056Z,50.10
2023-04-07T17:55:32.000Z,50.30
2023-04-07T17:58:02.143Z,50.20
2023-04-07T18:00:30.761Z,51.00
2023-04-07T18:03:00.545Z,51.00
2023-04-07T18:05:30.915Z,50.80
2023-04-07T18:07:59.150Z,52.20
2023-04-07T18:10:28.005Z,51.90
2023-04-07T18:12:56.600Z,51.20
2023-04-07T18:15:24.659Z,50.20
2023-04-07T18:17:54.951Z,50.20
2023-04-07T18:20:24.418Z,50.60
2023-04-07T18:22:53.586Z,50.50
2023-04-07T18:25:21.828Z,52.40
2023-04-07T18:27:50.977Z,51.00
2023-04-07T18:30:19.203Z,51.80
2023-04-07T18:32:47.529Z,51.30
2023-04-07T18:35:15.700Z,52.40
2023-04-07T18:37:45.063Z,51.40
2023-04-07T18:40:13.633Z,52.30
2023-04-07T18:42:41.743Z,52.80
2023-04-07T18:45:10.327Z,53.10
2023-04-07T18:47:39.052Z,52.30
2023-04-07T18:50:09.835Z,53.10
2023-04-07T18:52:38.824Z,53.10
2023-04-07T18:55:11.228Z,52.60
2023-04-07T18:57:40.274Z,53.20
2023-04-07T19:00:09.916Z,51.90
2023-04-07T19:02:44.175Z,52.30
2023-04-07T19:05:12.729Z,53.00
2023-04-07T19:07:41.734Z,53.10
2023-04-07T19:10:11.367Z,52.40
2023-04-07T19:12:40.017Z,53.10
2023-04-07T19:15:08.929Z,53.10
2023-04-07T19:17:37.389Z,52.20
2023-04-07T19:20:05.793Z,53.00
2023-04-07T19:22:33.741Z,52.90
2023-04-07T19:25:01.777Z,51.80
2023-04-07T19:27:31.281Z,52.30
2023-04-07T19:29:59.449Z,53.10
2023-04-07T19:32:28.165Z,53.10
2023-04-07T19:34:56.338Z,52.20
2023-04-07T19:37:24.428Z,51.40
2023-04-07T19:40:02.235Z,52.20
2023-04-07T19:42:32.658Z,52.00
2023-04-07T19:45:02.414Z,53.70
2023-04-07T19:47:31.170Z,52.60
2023-04-07T19:50:00.049Z,52.80
2023-04-07T19:52:29.632Z,53.30
2023-04-07T19:54:59.654Z,52.80
2023-04-07T19:57:28.491Z,53.50
2023-04-07T19:59:57.885Z,53.60
2023-04-07T20:02:26.244Z,54.80
2023-04-07T20:04:54.391Z,54.30
2023-04-07T20:07:22.938Z,53.80
2023-04-07T20:09:53.886Z,53.60
2023-04-07T20:12:22.191Z,54.80
2023-04-07T20:14:51.170Z,53.90
2023-04-07T20:17:20.651Z,54.70
2023-04-07T20:19:48.786Z,55.70
2023-04-07T20:22:17.096Z,55.10
2023-04-07T20:24:45.280Z,55.10
2023-04-07T20:27:14.300Z,55.80
2023-04-07T20:29:42.450Z,56.00
2023-04-07T20:32:10.557Z,55.90
2023-04-07T20:34:40.313Z,55.70
2023-04-07T20:37:09.818Z,55.60
2023-04-07T20:39:38.207Z,55.90
2023-04-07T20:42:06.653Z,55.70
2023-04-07T20:44:34.729Z,56.00
2023-04-07T20:47:07.734Z,55.90
2023-04-07T20:49:36.849Z,56.40
2023-04-07T20:52:07.023Z,56.50
2023-04-07T20:54:35.564Z,56.00
2023-04-07T20:57:03.644Z,55.30
2023-04-07T20:59:32.713Z,55.50
2023-04-07T21:02:01.025Z,55.50
2023-04-07T21:04:29.321Z,55.60
2023-04-07T21:06:57.432Z,55.30
2023-04-07T21:09:28.386Z,55.70
2023-04-07T21:11:58.315Z,54.80
2023-04-07T21:14:27.902Z,55.60
2023-04-07T21:16:55.955Z,55.90
2023-04-07T21:19:23.972Z,56.50
2023-04-07T21:21:52.198Z,56.60
2023-04-07T21:24:20.451Z,58.00
2023-04-07T21:26:49.892Z,58.00
2023-04-07T21:29:22.725Z,58.00
2023-04-07T21:31:50.891Z,56.70
2023-04-07T21:34:18.988Z,56.30
2023-04-07T21:36:46.937Z,55.50
2023-04-07T21:39:14.999Z,56.50
2023-04-07T21:41:47.168Z,56.30
2023-04-07T21:44:21.099Z,57.10
2023-04-07T21:46:49.222Z,57.30
2023-04-07T21:49:22.027Z,57.10
2023-04-07T21:51:50.150Z,57.80
2023-04-07T21:54:18.234Z,57.80
2023-04-07T21:56:49.187Z,57.80
2023-04-07T21:59:18.697Z,57.10
2023-04-07T22:01:47.141Z,56.50
2023-04-07T22:04:16.100Z,56.40
2023-04-07T22:06:44.147Z,56.40
2023-04-07T22:09:12.150Z,56.30
2023-04-07T22:11:40.389Z,56.60
2023-04-07T22:14:08.437Z,57.50
2023-04-07T22:16:37.956Z,56.50
2023-04-07T22:19:09.222Z,57.40
2023-04-07T22:21:37.354Z,57.80
2023-04-07T22:24:05.350Z,57.80
2023-04-07T22:26:33.424Z,57.20
2023-04-07T22:29:02.709Z,57.00
2023-04-07T22:31:30.929Z,57.80
2023-04-07T22:34:00.846Z,58.00
2023-04-07T22:36:29.436Z,58.80
2023-04-07T22:38:57.499Z,60.50
2023-04-07T22:41:26.920Z,61.30
2023-04-07T22:43:55.580Z,61.10
2023-04-07T22:46:23.622Z,60.50
2023-04-07T22:48:51.980Z,61.50
2023-04-07T22:51:21.966Z,60.60
2023-04-07T22:53:50.111Z,59.50
2023-04-07T22:56:19.198Z,60.00
2023-04-07T22:58:47.613Z,59.80
2023-04-07T23:01:16.390Z,60.30
2023-04-07T23:03:45.541Z,59.40
2023-04-07T23:06:14.018Z,58.60
2023-04-07T23:08:43.439Z,57.80
2023-04-07T23:11:11.501Z,57.80
2023-04-07T23:13:39.762Z,57.80
2023-04-07T23:16:12.040Z,57.80
2023-04-07T23:18:40.671Z,57.40
2023-04-07T23:21:08.659Z,57.70
2023-04-07T23:23:36.838Z,57.80
2023-04-07T23:26:06.639Z,57.30
2023-04-07T23:28:34.817Z,57.50
2023-04-07T23:31:03.179Z,57.70
2023-04-07T23:33:31.946Z,59.30
2023-04-07T23:36:00.225Z,60.50
2023-04-07T23:38:28.374Z,61.60
2023-04-07T23:40:58.187Z,62.30
2023-04-07T23:43:33.421Z,62.30
2023-04-07T23:46:02.246Z,61.60
2023-04-07T23:48:32.555Z,61.30
2023-04-07T23:51:00.919Z,60.20
2023-04-07T23:53:29.082Z,60.40
2023-04-07T23:55:57.406Z,60.60
2023-04-07T23:58:28.395Z,60.60
